sensor_id;sensor_type;location;lat;lon;timestamp;P1;durP1;ratioP1;P2;durP2;ratioP2
26177;SDS011;13924;47.670;10.310;2024-02-23T00:00:37;0.1;;;0.0;;
26177;SDS011;13924;47.670;10.310;2024-02-23T00:15:37;0.1;;;0.1;;
26177;SDS011;13924;47.670;10.310;2024-02-23T00:30:38;0.5;;;0.0;;
26177;SDS011;13924;47.670;10.310;2024-02-23T00:45:39;0.1;;;0.0;;
26177;SDS011;13924;47.670;10.310;2024-02-23T01:00:39;0.0;;;0.0;;
26177;SDS011;13924;47.670;10.310;2024-02-23T01:15:39;0.1;;;0.0;;
26177;SDS011;13924;47.670;10.310;2024-02-23T01:30:40;0.3;;;0.0;;
26177;SDS011;13924;47.670;10.310;2024-02-23T01:45:42;0.0;;;0.0;;
26177;SDS011;13924;47.670;10.310;2024-02-23T02:00:42;0.2;;;0.1;;
26177;SDS011;13924;47.670;10.310;2024-02-23T02:01:26;0.8;;;0.0;;
26177;SDS011;13924;47.670;10.310;2024-02-23T02:15:43;0.5;;;0.1;;
26177;SDS011;13924;47.670;10.310;2024-02-23T02:30:43;0.4;;;0.1;;
26177;SDS011;13924;47.670;10.310;2024-02-23T02:45:49;0.1;;;0.0;;
26177;SDS011;13924;47.670;10.310;2024-02-23T03:00:45;0.8;;;0.1;;
26177;SDS011;13924;47.670;10.310;2024-02-23T03:15:46;0.4;;;0.1;;
26177;SDS011;13924;47.670;10.310;2024-02-23T03:30:46;0.1;;;0.1;;
26177;SDS011;13924;47.670;10.310;2024-02-23T03:45:47;0.9;;;0.3;;
26177;SDS011;13924;47.670;10.310;2024-02-23T04:00:50;1.2;;;0.2;;
26177;SDS011;13924;47.670;10.310;2024-02-23T04:15:48;0.8;;;0.1;;
26177;SDS011;13924;47.670;10.310;2024-02-23T04:30:50;0.5;;;0.2;;
26177;SDS011;13924;47.670;10.310;2024-02-23T04:45:50;0.8;;;0.3;;
26177;SDS011;13924;47.670;10.310;2024-02-23T05:00:52;1.5;;;0.3;;
26177;SDS011;13924;47.670;10.310;2024-02-23T05:15:54;0.8;;;0.4;;
26177;SDS011;13924;47.670;10.310;2024-02-23T05:30:52;0.5;;;0.4;;
26177;SDS011;13924;47.670;10.310;2024-02-23T05:45:53;0.6;;;0.4;;
26177;SDS011;13924;47.670;10.310;2024-02-23T06:00:55;0.9;;;0.1;;
26177;SDS011;13924;47.670;10.310;2024-02-23T06:15:53;2.1;;;1.2;;
26177;SDS011;13924;47.670;10.310;2024-02-23T06:30:56;0.3;;;0.2;;
26177;SDS011;13924;47.670;10.310;2024-02-23T06:32:52;1.4;;;0.5;;
26177;SDS011;13924;47.670;10.310;2024-02-23T06:47:52;2.2;;;1.0;;
26177;SDS011;13924;47.670;10.310;2024-02-23T07:02:54;1.8;;;0.8;;
26177;SDS011;13924;47.670;10.310;2024-02-23T07:17:59;3.6;;;1.4;;
26177;SDS011;13924;47.670;10.310;2024-02-23T07:32:54;1.2;;;0.7;;
26177;SDS011;13924;47.670;10.310;2024-02-23T07:47:55;3.1;;;0.5;;
26177;SDS011;13924;47.670;10.310;2024-02-23T08:02:55;1.5;;;0.8;;
26177;SDS011;13924;47.670;10.310;2024-02-23T08:17:57;1.2;;;0.7;;
26177;SDS011;13924;47.670;10.310;2024-02-23T08:32:57;1.4;;;1.0;;
26177;SDS011;13924;47.670;10.310;2024-02-23T08:47:58;0.8;;;0.5;;
26177;SDS011;13924;47.670;10.310;2024-02-23T09:03:01;2.2;;;0.7;;
26177;SDS011;13924;47.670;10.310;2024-02-23T09:18:00;1.5;;;0.8;;
26177;SDS011;13924;47.670;10.310;2024-02-23T09:33:01;2.5;;;1.1;;
26177;SDS011;13924;47.670;10.310;2024-02-23T09:48:01;1.9;;;0.5;;
26177;SDS011;13924;47.670;10.310;2024-02-23T10:03:01;1.9;;;0.7;;
26177;SDS011;13924;47.670;10.310;2024-02-23T10:18:03;4.7;;;0.7;;
26177;SDS011;13924;47.670;10.310;2024-02-23T10:33:03;2.0;;;0.7;;
26177;SDS011;13924;47.670;10.310;2024-02-23T10:48:04;1.6;;;0.5;;
26177;SDS011;13924;47.670;10.310;2024-02-23T11:03:11;0.7;;;0.3;;
26177;SDS011;13924;47.670;10.310;2024-02-23T11:18:21;1.9;;;0.6;;
26177;SDS011;13924;47.670;10.310;2024-02-23T11:33:07;1.1;;;0.8;;
26177;SDS011;13924;47.670;10.310;2024-02-23T11:48:08;2.4;;;1.2;;
26177;SDS011;13924;47.670;10.310;2024-02-23T12:03:07;1.1;;;0.8;;
26177;SDS011;13924;47.670;10.310;2024-02-23T12:18:07;5.5;;;2.2;;
26177;SDS011;13924;47.670;10.310;2024-02-23T12:33:08;1.5;;;0.5;;
26177;SDS011;13924;47.670;10.310;2024-02-23T12:48:10;0.9;;;0.7;;
26177;SDS011;13924;47.670;10.310;2024-02-23T13:03:11;0.8;;;0.6;;
26177;SDS011;13924;47.670;10.310;2024-02-23T13:18:11;0.4;;;0.1;;
26177;SDS011;13924;47.670;10.310;2024-02-23T13:33:11;24.5;;;9.0;;
26177;SDS011;13924;47.670;10.310;2024-02-23T13:48:16;4.6;;;1.6;;
26177;SDS011;13924;47.670;10.310;2024-02-23T14:03:12;1.2;;;0.7;;
26177;SDS011;13924;47.670;10.310;2024-02-23T14:18:13;2.6;;;1.5;;
26177;SDS011;13924;47.670;10.310;2024-02-23T14:33:27;2.0;;;1.2;;
26177;SDS011;13924;47.670;10.310;2024-02-23T14:48:17;1.9;;;1.4;;
26177;SDS011;13924;47.670;10.310;2024-02-23T15:03:18;1.4;;;0.9;;
26177;SDS011;13924;47.670;10.310;2024-02-23T15:18:16;2.1;;;1.3;;
26177;SDS011;13924;47.670;10.310;2024-02-23T15:33:19;1.7;;;1.0;;
26177;SDS011;13924;47.670;10.310;2024-02-23T15:48:20;5.9;;;3.5;;
26177;SDS011;13924;47.670;10.310;2024-02-23T16:03:19;13.2;;;8.2;;
26177;SDS011;13924;47.670;10.310;2024-02-23T16:18:19;1.8;;;0.9;;
26177;SDS011;13924;47.670;10.310;2024-02-23T16:33:21;1.1;;;0.8;;
26177;SDS011;13924;47.670;10.310;2024-02-23T16:48:27;2.8;;;1.7;;
26177;SDS011;13924;47.670;10.310;2024-02-23T17:03:26;5.0;;;3.2;;
26177;SDS011;13924;47.670;10.310;2024-02-23T17:18:21;4.9;;;3.1;;
26177;SDS011;13924;47.670;10.310;2024-02-23T17:33:22;14.8;;;9.4;;
26177;SDS011;13924;47.670;10.310;2024-02-23T17:48:23;9.0;;;6.1;;
26177;SDS011;13924;47.670;10.310;2024-02-23T18:03:25;6.5;;;5.1;;
26177;SDS011;13924;47.670;10.310;2024-02-23T18:18:25;11.3;;;5.6;;
26177;SDS011;13924;47.670;10.310;2024-02-23T18:33:24;43.8;;;12.2;;
26177;SDS011;13924;47.670;10.310;2024-02-23T18:48:28;75.8;;;22.9;;
26177;SDS011;13924;47.670;10.310;2024-02-23T19:03:27;11.9;;;7.4;;
26177;SDS011;13924;47.670;10.310;2024-02-23T19:18:27;7.0;;;3.6;;
26177;SDS011;13924;47.670;10.310;2024-02-23T19:33:28;6.8;;;4.9;;
26177;SDS011;13924;47.670;10.310;2024-02-23T19:48:38;12.5;;;6.6;;
26177;SDS011;13924;47.670;10.310;2024-02-23T20:03:35;2.6;;;1.8;;
26177;SDS011;13924;47.670;10.310;2024-02-23T20:18:33;2.4;;;1.4;;
26177;SDS011;13924;47.670;10.310;2024-02-23T20:33:33;3.6;;;2.1;;
26177;SDS011;13924;47.670;10.310;2024-02-23T20:48:54;3.2;;;1.8;;
26177;SDS011;13924;47.670;10.310;2024-02-23T21:03:40;1.6;;;1.5;;
26177;SDS011;13924;47.670;10.310;2024-02-23T21:18:32;2.7;;;1.6;;
26177;SDS011;13924;47.670;10.310;2024-02-23T21:33:34;4.7;;;2.4;;
26177;SDS011;13924;47.670;10.310;2024-02-23T21:48:36;1.2;;;1.0;;
26177;SDS011;13924;47.670;10.310;2024-02-23T22:03:34;1.7;;;1.4;;
26177;SDS011;13924;47.670;10.310;2024-02-23T22:18:37;2.7;;;1.4;;
26177;SDS011;13924;47.670;10.310;2024-02-23T22:33:36;4.6;;;2.0;;
26177;SDS011;13924;47.670;10.310;2024-02-23T22:48:36;3.2;;;1.7;;
26177;SDS011;13924;47.670;10.310;2024-02-23T23:00:34;4.4;;;2.0;;
26177;SDS011;13924;47.670;10.310;2024-02-23T23:15:36;2.5;;;1.6;;
26177;SDS011;13924;47.670;10.310;2024-02-23T23:30:36;1.9;;;0.9;;
26177;SDS011;13924;47.670;10.310;2024-02-23T23:45:38;1.9;;;0.9;;
